Time;durP1;ratioP1;P1;durP2;ratioP2;P2;SDS_P1;SDS_P2;PMS_P1;PMS_P2;Temp;Humidity;BMP_temperature;BMP_pressure;BME280_temperature;BME280_humidity;BME280_pressure;Samples;Min_cycle;Max_cycle;Signal;HPM_P1;HPM_P2
2022/01/24 00:00:08;;;;;;;6.95;5.10;;;;;;;11.21;62.83;101972.28;4973736;28;20043;-78
2022/01/24 00:02:37;;;;;;;5.70;4.72;;;;;;;11.24;61.86;101966.34;4972958;28;20078;-79
2022/01/24 00:05:06;;;;;;;8.45;5.20;;;;;;;11.22;62.12;101973.16;4974167;28;20054;-81
2022/01/24 00:07:35;;;;;;;7.20;5.07;;;;;;;11.19;62.16;101973.03;4972680;28;20448;-79
2022/01/24 00:10:07;;;;;;;7.15;5.30;;;;;;;11.18;61.65;101979.00;4973462;28;20118;-81
2022/01/24 00:12:46;;;;;;;6.50;4.47;;;;;;;11.15;61.42;101969.41;4977224;28;20052;-80
2022/01/24 00:15:20;;;;;;;7.47;5.03;;;;;;;11.07;61.15;101973.34;4973774;28;20635;-79
2022/01/24 00:17:51;;;;;;;7.70;5.45;;;;;;;10.99;61.72;101977.28;4974521;28;20145;-81
2022/01/24 00:28:37;;;;;;;10.23;7.07;;;;;;;10.83;64.97;101978.25;4974314;28;20535;-80
2022/01/24 00:31:05;;;;;;;15.18;7.18;;;;;;;10.77;65.61;101965.03;4973372;28;20054;-81
2022/01/24 00:33:34;;;;;;;9.48;5.75;;;;;;;10.74;64.82;101962.25;4972894;28;20051;-81
2022/01/24 00:36:02;;;;;;;10.95;6.72;;;;;;;10.71;65.96;101965.59;4973511;28;20286;-81
2022/01/24 00:38:32;;;;;;;11.30;6.53;;;;;;;10.63;67.14;101957.47;4975531;28;20047;-81
2022/01/24 00:41:00;;;;;;;8.93;5.28;;;;;;;10.57;66.49;101959.75;4984773;28;20054;-79
2022/01/24 00:43:38;;;;;;;7.90;5.10;;;;;;;10.53;65.51;101956.94;4973170;28;20046;-80
2022/01/24 00:46:19;;;;;;;7.88;4.88;;;;;;;10.51;66.78;101953.38;4972899;28;20058;-79
2022/01/24 00:49:14;;;;;;;7.32;4.75;;;;;;;10.46;67.47;101951.47;4974790;28;20057;-78
2022/01/24 00:54:48;;;;;;;9.25;5.25;;;;;;;10.30;68.33;101948.94;4962787;28;20053;-75
2022/01/24 00:57:16;;;;;;;8.90;4.88;;;;;;;10.22;69.53;101945.94;4974382;28;20055;-75
2022/01/24 00:59:45;;;;;;;8.30;4.63;;;;;;;10.16;70.73;101948.22;4974183;28;20051;-74
2022/01/24 01:02:15;;;;;;;8.07;4.72;;;;;;;10.12;69.86;101948.84;4972960;28;20051;-75
2022/01/24 01:05:01;;;;;;;7.97;4.88;;;;;;;10.06;68.76;101948.56;4975608;28;20069;-81
2022/01/24 01:07:37;;;;;;;8.45;5.15;;;;;;;9.97;69.28;101942.94;4975074;28;20065;-80
2022/01/24 01:18:25;;;;;;;8.23;4.75;;;;;;;9.69;72.15;101948.34;4973078;28;20094;-76
2022/01/24 01:21:08;;;;;;;9.07;4.90;;;;;;;9.61;71.88;101950.56;4973908;28;20051;-78
2022/01/24 01:23:40;;;;;;;8.00;4.93;;;;;;;9.55;71.86;101952.81;4972914;28;20047;-76
2022/01/24 01:26:15;;;;;;;6.93;4.10;;;;;;;9.46;73.81;101952.31;4960084;28;20053;-77
2022/01/24 01:28:50;;;;;;;5.68;4.05;;;;;;;9.30;73.53;101943.78;4973059;28;20051;-79
2022/01/24 01:31:28;;;;;;;8.00;4.63;;;;;;;9.27;74.99;101956.50;4973093;28;20066;-77
2022/01/24 01:34:07;;;;;;;9.75;5.30;;;;;;;9.18;74.48;101956.00;4972376;28;20043;-76
2022/01/24 01:37:03;;;;;;;11.65;5.70;;;;;;;9.12;73.99;101953.09;4959578;28;20101;-78
2022/01/24 03:16:01;;;;;;;8.68;4.85;;;;;;;6.61;88.32;102007.63;5828885;22;8676991;-85
2022/01/24 03:18:30;;;;;;;14.00;5.40;;;;;;;6.54;88.92;102008.03;6187967;23;20101;-84
2022/01/24 03:20:59;;;;;;;10.05;5.70;;;;;;;6.48;88.72;102005.97;6185433;23;20079;-82
2022/01/24 03:23:28;;;;;;;13.60;6.75;;;;;;;6.42;89.50;102013.25;6187300;23;20025;-85
2022/01/24 03:25:57;;;;;;;19.20;7.28;;;;;;;6.36;92.79;102012.84;6185385;23;20482;-78
2022/01/24 03:28:26;;;;;;;9.77;6.18;;;;;;;6.34;93.32;102014.41;6184997;23;20439;-78
2022/01/24 03:30:56;;;;;;;18.38;8.70;;;;;;;6.31;93.26;102021.06;6184557;23;20024;-79
2022/01/24 03:33:25;;;;;;;10.77;6.32;;;;;;;6.08;90.16;102010.09;6184709;23;20072;-78
2022/01/24 03:35:53;;;;;;;10.00;5.78;;;;;;;5.94;95.00;102034.88;6184697;23;20383;-83
2022/01/24 03:38:23;;;;;;;11.18;4.93;;;;;;;5.70;99.85;102026.31;6185574;23;20032;-81
2022/01/24 03:40:51;;;;;;;11.10;5.25;;;;;;;5.52;100.00;102043.91;6184355;23;20065;-81
2022/01/24 03:43:20;;;;;;;8.23;4.95;;;;;;;5.42;100.00;102029.50;6184038;23;20021;-82
2022/01/24 03:46:09;;;;;;;12.70;5.40;;;;;;;5.43;100.00;102038.13;6184449;23;20021;-81
2022/01/24 03:48:42;;;;;;;9.43;4.68;;;;;;;5.46;100.00;102041.78;6183709;23;20048;-79
2022/01/24 03:51:12;;;;;;;8.45;4.82;;;;;;;5.46;100.00;102043.47;6183683;23;20087;-78
2022/01/24 03:53:42;;;;;;;7.63;5.40;;;;;;;5.46;100.00;102040.91;6184369;23;20387;-79
2022/01/24 03:56:11;;;;;;;10.63;5.93;;;;;;;5.47;100.00;102042.66;6184533;23;20025;-82
2022/01/24 03:58:40;;;;;;;11.10;6.07;;;;;;;5.47;100.00;102037.53;6184032;23;20021;-80
2022/01/24 04:01:10;;;;;;;10.95;6.32;;;;;;;5.44;100.00;102045.91;6183558;23;20056;-77
2022/01/24 04:03:43;;;;;;;12.07;5.72;;;;;;;5.42;100.00;102039.78;6185481;23;20024;-78
2022/01/24 04:06:11;;;;;;;11.35;6.35;;;;;;;5.39;100.00;102039.56;6186677;23;20036;-81
2022/01/24 04:08:40;;;;;;;11.80;6.03;;;;;;;5.39;100.00;102043.81;6184642;23;20080;-78
2022/01/24 04:11:11;;;;;;;10.85;5.55;;;;;;;5.35;100.00;102042.69;6184271;23;20684;-80
2022/01/24 04:13:43;;;;;;;12.93;6.63;;;;;;;5.33;100.00;102038.25;6184045;23;20068;-78
2022/01/24 04:16:30;;;;;;;9.13;5.57;;;;;;;5.31;99.88;102045.81;6186639;22;20091;-79
2022/01/24 04:19:25;;;;;;;10.27;5.38;;;;;;;5.25;100.00;102038.59;6184683;23;20027;-79
2022/01/24 04:21:50;;;;;;;10.00;5.45;;;;;;;5.25;100.00;102041.16;6185655;23;20051;-78
2022/01/24 04:24:22;;;;;;;11.55;6.15;;;;;;;5.24;100.00;102043.59;6183918;23;20351;-77
2022/01/24 04:26:51;;;;;;;11.38;5.78;;;;;;;5.21;100.00;102054.53;6183588;23;20023;-78
2022/01/24 04:29:19;;;;;;;8.57;5.32;;;;;;;5.18;100.00;102049.22;6183048;23;20079;-77
2022/01/24 04:31:48;;;;;;;13.40;6.13;;;;;;;5.15;100.00;102043.81;6184283;23;20052;-80
2022/01/24 04:34:18;;;;;;;11.00;6.35;;;;;;;5.08;100.00;102040.72;6183643;23;20379;-77
2022/01/24 04:36:47;;;;;;;12.48;6.60;;;;;;;5.03;100.00;102051.53;6183921;23;20021;-77
2022/01/24 04:39:16;;;;;;;13.95;6.32;;;;;;;4.97;100.00;102039.94;6183601;23;20021;-79
2022/01/24 04:41:47;;;;;;;14.73;6.68;;;;;;;4.96;100.00;102051.88;6183531;23;20212;-78
2022/01/24 04:44:33;;;;;;;18.25;6.78;;;;;;;4.93;100.00;102050.78;6183743;23;20071;-78
2022/01/24 04:47:15;;;;;;;19.38;7.72;;;;;;;4.88;100.00;102050.44;6184049;23;20075;-77
2022/01/24 04:52:40;;;;;;;28.30;11.85;;;;;;;4.80;100.00;102043.84;6156831;23;20400;-78
2022/01/24 04:55:10;;;;;;;21.38;10.13;;;;;;;4.78;100.00;102046.28;6184046;23;20017;-78
2022/01/24 04:57:38;;;;;;;22.58;11.10;;;;;;;4.75;100.00;102045.19;6183271;23;20021;-79
2022/01/24 05:00:10;;;;;;;23.95;10.90;;;;;;;4.62;100.00;102030.56;6182904;23;20346;-79
2022/01/24 05:02:38;;;;;;;18.25;8.45;;;;;;;4.60;100.00;102039.81;6186285;23;20021;-78
2022/01/24 05:05:14;;;;;;;18.10;8.88;;;;;;;4.58;100.00;102038.78;6187805;23;20021;-80
2022/01/24 05:07:43;;;;;;;18.23;9.35;;;;;;;4.56;100.00;102037.81;6183164;23;20072;-79
2022/01/24 05:10:18;;;;;;;18.90;9.35;;;;;;;4.53;100.00;102040.13;6182866;23;20021;-83
2022/01/24 05:23:54;;;;;;;17.23;8.13;;;;;;;4.25;100.00;102020.13;6178711;23;20060;-82
2022/01/24 05:26:22;;;;;;;19.00;7.57;;;;;;;4.32;100.00;102032.63;6183303;23;20024;-82
2022/01/24 05:28:51;;;;;;;16.85;7.70;;;;;;;4.29;100.00;102024.72;6182906;23;20025;-83
2022/01/24 05:31:21;;;;;;;16.73;8.93;;;;;;;4.22;100.00;102014.78;6183163;23;20025;-83
2022/01/24 05:33:49;;;;;;;17.85;8.15;;;;;;;4.20;100.00;102029.16;6182972;23;20464;-81
2022/01/24 05:36:19;;;;;;;20.77;8.65;;;;;;;4.17;100.00;102016.13;6182542;23;20088;-82
2022/01/24 05:38:48;;;;;;;19.45;8.43;;;;;;;4.14;100.00;102015.88;6183157;23;20028;-80
2022/01/24 05:41:17;;;;;;;15.90;7.88;;;;;;;4.12;100.00;102014.84;6182586;23;20021;-79
2022/01/24 05:43:46;;;;;;;12.68;7.93;;;;;;;4.08;100.00;102016.31;6183190;23;20392;-81
2022/01/24 05:46:14;;;;;;;14.50;8.43;;;;;;;4.04;99.49;102018.53;6182743;23;20020;-79
2022/01/24 05:48:43;;;;;;;18.05;8.57;;;;;;;4.02;99.96;102025.19;6183242;23;20059;-80
2022/01/24 05:51:11;;;;;;;14.35;7.25;;;;;;;3.98;100.00;102032.63;6182963;23;20354;-81
2022/01/24 05:53:41;;;;;;;23.15;8.07;;;;;;;3.93;100.00;102033.94;6182549;23;20097;-81
2022/01/24 05:56:10;;;;;;;16.92;9.00;;;;;;;3.89;100.00;102037.03;6183418;23;20092;-81
2022/01/24 05:58:38;;;;;;;17.02;8.38;;;;;;;3.85;100.00;102037.59;6182405;23;20376;-78
2022/01/24 06:01:07;;;;;;;21.27;9.18;;;;;;;3.75;100.00;102050.44;6183161;23;20072;-79
2022/01/24 06:03:35;;;;;;;14.82;7.82;;;;;;;3.66;100.00;102044.63;6184190;23;20024;-81
2022/01/24 06:06:04;;;;;;;14.70;7.43;;;;;;;3.59;100.00;102053.47;6183923;23;20025;-80
2022/01/24 06:08:32;;;;;;;16.73;7.53;;;;;;;3.54;100.00;102045.44;6185902;23;20043;-81
2022/01/24 06:11:03;;;;;;;12.90;6.45;;;;;;;3.43;100.00;102053.06;6183007;23;20513;-82
2022/01/24 06:13:31;;;;;;;13.60;6.75;;;;;;;3.33;100.00;102059.13;6183245;23;20017;-81
2022/01/24 06:16:00;;;;;;;8.00;5.32;;;;;;;3.30;100.00;102051.22;6184644;22;20017;-81
2022/01/24 06:18:28;;;;;;;11.88;5.68;;;;;;;3.32;100.00;102053.13;6184624;23;20021;-81
2022/01/24 06:20:57;;;;;;;10.52;5.57;;;;;;;3.34;100.00;102040.44;6183658;23;20021;-81
2022/01/24 06:23:26;;;;;;;11.88;5.95;;;;;;;3.35;100.00;102044.78;6183425;23;20391;-80
2022/01/24 06:25:54;;;;;;;10.70;6.32;;;;;;;3.35;100.00;102038.00;6183521;23;20100;-80
2022/01/24 06:28:24;;;;;;;12.88;6.25;;;;;;;3.35;100.00;102042.22;6185297;23;20021;-81
2022/01/24 06:30:53;;;;;;;15.43;7.25;;;;;;;3.36;100.00;102044.00;6184835;23;20475;-81
2022/01/24 06:33:22;;;;;;;16.17;7.65;;;;;;;3.35;100.00;102055.91;6184849;23;20040;-81
2022/01/24 06:35:50;;;;;;;9.73;6.68;;;;;;;3.33;100.00;102047.22;6184720;23;20028;-81
2022/01/24 06:38:18;;;;;;;19.70;7.00;;;;;;;3.31;100.00;102047.88;6184950;23;20059;-81
2022/01/24 06:40:47;;;;;;;13.88;7.25;;;;;;;3.24;100.00;102043.94;6184830;23;20087;-81
2022/01/24 06:43:15;;;;;;;15.15;7.75;;;;;;;3.20;100.00;102054.69;6184008;23;20451;-82
2022/01/24 06:45:46;;;;;;;14.10;7.10;;;;;;;3.17;100.00;102048.44;6184727;23;20463;-81
2022/01/24 06:48:14;;;;;;;14.55;7.30;;;;;;;3.06;100.00;102022.88;6183978;23;20075;-81
2022/01/24 06:50:43;;;;;;;13.50;6.68;;;;;;;3.11;100.00;102038.59;6183931;23;20075;-81
2022/01/24 06:53:12;;;;;;;16.55;7.32;;;;;;;3.09;100.00;102043.63;6184114;23;20113;-81
2022/01/24 06:55:41;;;;;;;11.70;6.07;;;;;;;3.08;100.00;102046.03;6183107;23;20128;-81
2022/01/24 06:58:10;;;;;;;17.52;7.80;;;;;;;3.05;100.00;102045.81;6183657;23;20017;-82
2022/01/24 07:00:38;;;;;;;18.27;8.20;;;;;;;3.05;100.00;102048.34;6184735;23;20021;-80
2022/01/24 07:03:08;;;;;;;17.55;7.32;;;;;;;3.00;100.00;102058.22;6184919;23;20433;-81
2022/01/24 07:05:37;;;;;;;15.07;6.85;;;;;;;2.98;100.00;102046.97;6188149;23;20021;-81
2022/01/24 07:08:06;;;;;;;17.77;6.70;;;;;;;2.96;100.00;102042.50;6184930;23;20395;-81
2022/01/24 07:10:34;;;;;;;12.38;5.90;;;;;;;2.90;100.00;102040.31;6184389;23;20021;-81
2022/01/24 07:13:03;;;;;;;15.52;7.13;;;;;;;2.87;100.00;102034.97;6184678;23;20463;-84
2022/01/24 07:15:35;;;;;;;14.40;7.00;;;;;;;2.84;100.00;102029.59;6186550;22;20028;-82
2022/01/24 07:20:51;;;;;;;17.17;6.38;;;;;;;2.77;100.00;102038.44;6186880;23;20027;-81
2022/01/24 07:23:20;;;;;;;13.20;6.35;;;;;;;2.76;100.00;102034.09;6189154;23;20029;-81
2022/01/24 07:25:49;;;;;;;15.15;6.38;;;;;;;2.73;100.00;102052.63;6184895;23;20329;-80
2022/01/24 07:28:18;;;;;;;11.70;6.50;;;;;;;2.69;100.00;102050.59;6184838;23;20091;-80
2022/01/24 07:30:48;;;;;;;13.57;6.13;;;;;;;2.69;100.00;102048.03;6184018;23;20052;-80
2022/01/24 07:33:16;;;;;;;14.02;5.75;;;;;;;2.68;100.00;102043.72;6184156;23;20072;-80
2022/01/24 07:35:46;;;;;;;14.80;6.43;;;;;;;2.61;100.00;102035.41;6184026;23;20021;-80
2022/01/24 07:38:16;;;;;;;12.48;6.03;;;;;;;2.55;100.00;102034.91;6183422;23;20029;-80
2022/01/24 07:40:47;;;;;;;9.68;5.38;;;;;;;2.50;100.00;102048.19;6183869;23;20025;-80
2022/01/24 07:43:16;;;;;;;15.95;7.00;;;;;;;2.49;100.00;102041.28;6183946;23;20061;-80
2022/01/24 07:45:46;;;;;;;16.90;6.43;;;;;;;2.49;100.00;102042.94;6183526;23;20055;-80
2022/01/24 07:48:16;;;;;;;14.65;7.13;;;;;;;2.48;100.00;102038.63;6183846;23;20080;-80
2022/01/24 07:50:46;;;;;;;13.95;6.63;;;;;;;2.48;100.00;102038.63;6184043;23;20360;-80
2022/01/24 07:53:17;;;;;;;14.20;6.68;;;;;;;2.45;100.00;102044.38;6184213;23;20051;-81
2022/01/24 07:55:46;;;;;;;19.35;7.95;;;;;;;2.45;100.00;102039.25;6183988;23;20021;-80
2022/01/24 07:58:14;;;;;;;14.05;7.13;;;;;;;2.45;100.00;102040.91;6184394;23;20029;-81
2022/01/24 08:00:43;;;;;;;15.82;6.90;;;;;;;2.45;100.00;102049.47;6184443;23;20407;-82
2022/01/24 08:03:11;;;;;;;20.00;8.38;;;;;;;2.47;100.00;102049.59;6186018;23;20059;-81
2022/01/24 08:05:40;;;;;;;24.30;9.70;;;;;;;2.47;100.00;102047.03;6185373;23;20068;-81
2022/01/24 08:08:09;;;;;;;17.67;8.77;;;;;;;2.46;100.00;102055.47;6188891;23;20024;-81
2022/01/24 08:10:39;;;;;;;23.75;10.35;;;;;;;2.47;100.00;102049.59;6183902;23;20060;-80
2022/01/24 08:13:08;;;;;;;23.10;11.05;;;;;;;2.47;100.00;102037.72;6184389;23;20541;-80
2022/01/24 08:15:37;;;;;;;24.83;11.20;;;;;;;2.47;100.00;102037.72;6186949;22;20021;-80
2022/01/24 08:18:05;;;;;;;30.75;12.32;;;;;;;2.47;100.00;102034.25;6183759;23;20021;-80
2022/01/24 08:20:34;;;;;;;31.23;12.52;;;;;;;2.46;100.00;102041.03;6183218;23;20021;-81
2022/01/24 08:23:03;;;;;;;27.98;9.95;;;;;;;2.46;100.00;102040.16;6182244;23;20020;-80
2022/01/24 08:25:31;;;;;;;29.25;12.70;;;;;;;2.45;100.00;102038.34;6183532;23;20056;-80
2022/01/24 08:28:01;;;;;;;31.25;10.13;;;;;;;2.43;100.00;102025.47;6183750;23;20071;-80
2022/01/24 08:30:30;;;;;;;19.38;9.75;;;;;;;2.43;100.00;102020.34;6183358;23;20025;-80
2022/01/24 08:32:59;;;;;;;25.33;10.40;;;;;;;2.43;100.00;102019.47;6183309;23;20029;-81
2022/01/24 08:35:27;;;;;;;23.38;9.70;;;;;;;2.42;100.00;102017.66;6183597;23;20024;-80
2022/01/24 08:37:56;;;;;;;20.70;10.43;;;;;;;2.43;100.00;102014.38;6182894;23;20028;-81
2022/01/24 08:40:27;;;;;;;22.42;9.80;;;;;;;2.44;100.00;102021.25;6183239;23;20075;-80
2022/01/24 08:43:00;;;;;;;30.73;9.70;;;;;;;2.42;100.00;102003.22;6182554;23;20025;-80
2022/01/24 08:45:45;;;;;;;27.58;9.20;;;;;;;2.41;100.00;102005.69;6183138;23;20017;-81
2022/01/24 08:48:15;;;;;;;22.70;9.00;;;;;;;2.42;100.00;102002.34;6182822;23;20024;-80
2022/01/24 08:50:44;;;;;;;21.42;9.32;;;;;;;2.43;100.00;101999.03;6182996;23;20083;-80
2022/01/24 08:53:12;;;;;;;24.55;10.13;;;;;;;2.44;100.00;102000.81;6182849;23;20259;-80
2022/01/24 08:55:41;;;;;;;21.83;9.50;;;;;;;2.46;100.00;101999.28;6183160;23;20395;-80
2022/01/24 08:58:13;;;;;;;30.92;10.60;;;;;;;2.41;100.00;101991.25;6183462;23;20025;-80
2022/01/24 09:00:45;;;;;;;27.20;10.23;;;;;;;2.44;100.00;101995.69;6183380;23;20056;-80
2022/01/24 09:03:14;;;;;;;25.45;9.73;;;;;;;2.45;100.00;101998.38;6182657;23;20061;-80
2022/01/24 09:05:42;;;;;;;25.77;9.73;;;;;;;2.47;100.00;101998.50;6183725;23;20076;-80
2022/01/24 09:08:11;;;;;;;25.15;10.20;;;;;;;2.50;100.00;102012.44;6186914;23;20028;-80
2022/01/24 09:10:40;;;;;;;22.83;9.00;;;;;;;2.55;100.00;102024.69;6182876;23;20080;-80
2022/01/24 09:13:09;;;;;;;26.52;8.80;;;;;;;2.55;100.00;102023.03;6182847;23;20483;-80
2022/01/24 09:15:38;;;;;;;17.70;7.43;;;;;;;2.59;100.00;102021.59;6185376;22;20076;-80
2022/01/24 09:18:11;;;;;;;25.80;8.55;;;;;;;2.60;100.00;102033.63;6183579;23;20021;-80
2022/01/24 09:20:40;;;;;;;18.08;7.50;;;;;;;2.62;100.00;102035.53;6183309;23;20031;-80
2022/01/24 09:23:10;;;;;;;25.42;8.57;;;;;;;2.62;100.00;102038.09;6182635;23;20076;-80
2022/01/24 09:25:38;;;;;;;16.55;7.38;;;;;;;2.63;100.00;102024.53;6182584;23;20017;-80
2022/01/24 09:28:07;;;;;;;15.80;6.85;;;;;;;2.62;100.00;102032.97;6182965;23;20072;-80
2022/01/24 09:30:35;;;;;;;18.85;7.20;;;;;;;2.61;100.00;102010.75;6182032;23;20245;-81
2022/01/24 09:33:04;;;;;;;33.72;9.07;;;;;;;2.49;100.00;102002.97;6182532;23;20111;-81
2022/01/24 09:35:34;;;;;;;25.85;8.52;;;;;;;2.42;100.00;101999.78;6182846;23;20033;-81
2022/01/24 09:38:02;;;;;;;27.95;8.80;;;;;;;2.46;100.00;101999.28;6182992;23;20025;-80
2022/01/24 09:40:31;;;;;;;22.02;9.25;;;;;;;2.50;100.00;102001.31;6182099;23;20477;-80
2022/01/24 09:43:00;;;;;;;20.35;8.15;;;;;;;2.56;100.00;102003.47;6182508;23;20079;-80
2022/01/24 09:45:29;;;;;;;25.52;8.60;;;;;;;2.57;100.00;102001.06;6182679;23;20109;-81
2022/01/24 09:47:59;;;;;;;16.85;8.45;;;;;;;2.39;100.00;101974.88;6182784;23;20017;-81
2022/01/24 09:50:27;;;;;;;22.45;7.82;;;;;;;2.44;100.00;101983.81;6184031;23;20083;-81
2022/01/24 09:52:58;;;;;;;18.52;8.20;;;;;;;2.45;100.00;101992.34;6181963;23;20087;-81
2022/01/24 09:55:27;;;;;;;16.08;7.78;;;;;;;2.45;100.00;101998.38;6183264;23;20091;-81
2022/01/24 09:57:55;;;;;;;21.70;8.18;;;;;;;2.47;100.00;101998.50;6182808;23;20025;-81
2022/01/24 10:00:26;;;;;;;21.50;8.10;;;;;;;2.50;100.00;102004.75;6182747;23;20024;-80
2022/01/24 10:02:55;;;;;;;28.63;8.65;;;;;;;2.54;100.00;102010.13;6184960;23;20152;-80
2022/01/24 10:05:26;;;;;;;23.83;7.53;;;;;;;2.57;100.00;102026.59;6185041;23;20025;-81
2022/01/24 10:07:59;;;;;;;26.98;9.50;;;;;;;2.59;100.00;102037.84;6184397;23;20020;-81
2022/01/24 10:10:33;;;;;;;15.13;7.32;;;;;;;2.60;100.00;102034.50;6186332;23;20021;-81
2022/01/24 10:16:26;;;;;;;21.83;7.43;;;;;;;2.68;100.00;102018.16;6187714;22;20036;-81
2022/01/24 10:19:10;;;;;;;21.88;8.35;;;;;;;2.71;100.00;102009.84;6184556;23;20025;-80
2022/01/24 10:21:41;;;;;;;20.08;7.90;;;;;;;2.73;100.00;102015.97;6183150;23;20071;-81
2022/01/24 10:24:13;;;;;;;18.63;7.78;;;;;;;2.72;100.00;102014.16;6184642;23;20021;-81
2022/01/24 10:26:41;;;;;;;30.02;7.65;;;;;;;2.69;100.00;102014.81;6184430;23;20021;-81
2022/01/24 10:29:14;;;;;;;18.60;7.50;;;;;;;2.70;100.00;102020.81;6184942;23;20017;-80
2022/01/24 10:31:48;;;;;;;20.65;7.07;;;;;;;2.72;100.00;102014.16;6183963;23;20048;-82
2022/01/24 10:34:25;;;;;;;19.42;6.50;;;;;;;2.75;100.00;102014.44;6183873;23;20055;-80
2022/01/24 10:36:54;;;;;;;11.98;6.18;;;;;;;2.75;100.00;102008.41;6184473;23;20017;-80
2022/01/24 10:39:32;;;;;;;17.92;7.10;;;;;;;2.79;100.00;102006.22;6186428;23;20106;-80
2022/01/24 10:42:37;;;;;;;18.98;7.10;;;;;;;2.80;100.00;102008.03;6184593;23;20029;-79
2022/01/24 10:45:14;;;;;;;24.45;7.20;;;;;;;2.81;100.00;102011.47;6184879;23;20061;-80
2022/01/24 10:47:49;;;;;;;29.05;8.20;;;;;;;2.81;100.00;102007.25;6184202;23;20028;-80
2022/01/24 10:50:24;;;;;;;16.38;6.93;;;;;;;2.81;100.00;102008.91;6185095;23;20027;-80
2022/01/24 10:52:54;;;;;;;21.42;6.28;;;;;;;2.80;100.00;101999.47;6183516;23;20452;-81
2022/01/24 10:55:26;;;;;;;17.33;7.80;;;;;;;2.78;100.00;101995.91;6185624;23;20124;-80
2022/01/24 10:57:59;;;;;;;14.88;7.40;;;;;;;2.80;100.00;101990.13;6184285;23;20052;-79
2022/01/24 11:00:30;;;;;;;16.67;6.30;;;;;;;2.83;100.00;101997.16;6184649;23;20025;-80
2022/01/24 11:03:00;;;;;;;19.92;7.00;;;;;;;2.81;100.00;101999.56;6183776;23;20088;-80
2022/01/24 11:05:31;;;;;;;19.10;6.95;;;;;;;2.81;100.00;101993.56;6184113;23;20017;-80
2022/01/24 11:08:01;;;;;;;24.52;6.68;;;;;;;2.77;100.00;101991.53;6183563;23;20087;-80
2022/01/24 11:10:33;;;;;;;21.48;6.63;;;;;;;2.77;100.00;101996.66;6187922;23;20021;-79
2022/01/24 11:13:04;;;;;;;14.68;6.90;;;;;;;2.78;100.00;101989.13;6184128;23;20028;-80
2022/01/24 11:15:55;;;;;;;10.55;5.60;;;;;;;2.79;100.00;101995.09;6187341;22;20021;-79
2022/01/24 11:18:24;;;;;;;10.98;6.03;;;;;;;2.80;100.00;101999.47;6154757;23;20317;-80
2022/01/24 11:21:05;;;;;;;12.18;5.50;;;;;;;2.82;100.00;101995.34;6153617;23;20025;-80
2022/01/24 11:23:39;;;;;;;13.82;6.70;;;;;;;2.83;100.00;101997.16;6153059;23;20025;-80
2022/01/24 11:26:11;;;;;;;11.45;6.40;;;;;;;2.82;100.00;101995.34;6154189;23;20025;-79
2022/01/24 11:28:40;;;;;;;12.65;6.43;;;;;;;2.76;100.00;101994.88;6154195;23;20032;-80
2022/01/24 11:31:17;;;;;;;18.75;6.32;;;;;;;2.82;100.00;102000.47;6153417;23;20038;-79
2022/01/24 11:33:54;;;;;;;21.38;6.50;;;;;;;2.80;100.00;101987.56;6153764;23;20092;-79
2022/01/24 11:36:37;;;;;;;12.13;5.85;;;;;;;2.77;100.00;101968.53;6153700;23;20060;-80
2022/01/24 11:39:06;;;;;;;;;;;;;;;2.80;100.00;101971.34;6154781;23;20073;-80
2022/01/24 11:41:39;;;;;;;15.60;5.88;;;;;;;2.80;100.00;101967.13;6154260;23;19924;-80
2022/01/24 11:44:10;;;;;;;9.48;5.70;;;;;;;2.80;100.00;101966.25;6154476;23;20025;-80
2022/01/24 11:46:47;;;;;;;12.02;5.85;;;;;;;2.81;100.00;101963.78;6153635;23;20043;-80
2022/01/24 11:49:17;;;;;;;11.38;5.63;;;;;;;2.83;100.00;101961.38;6154128;23;20028;-80
2022/01/24 11:51:47;;;;;;;10.88;6.20;;;;;;;2.84;100.00;101960.56;6153784;23;20022;-80
2022/01/24 11:54:44;;;;;;;10.02;5.40;;;;;;;2.84;100.00;101953.81;6153984;23;20101;-79
2022/01/24 11:57:27;;;;;;;9.15;5.80;;;;;;;2.79;100.00;101955.09;6154490;23;20092;-80
2022/01/24 12:00:15;;;;;;;;;;;;;;;2.77;100.00;101973.66;6154971;23;20088;-80
2022/01/24 12:02:46;;;;;;;10.65;4.88;;;;;;;2.67;100.00;101944.78;6155294;23;19920;-80
2022/01/24 12:05:16;;;;;;;13.63;5.43;;;;;;;2.78;100.00;101942.22;6154173;23;20029;-80
2022/01/24 12:07:46;;;;;;;13.63;5.82;;;;;;;2.60;100.00;101929.75;6153120;23;20028;-79
2022/01/24 12:10:43;;;;;;;11.00;5.80;;;;;;;2.61;100.00;101959.66;6154483;23;20120;-80
2022/01/24 12:13:22;;;;;;;11.77;6.07;;;;;;;2.53;100.00;101945.34;6157906;23;20072;-80
2022/01/24 12:16:02;;;;;;;14.48;6.20;;;;;;;2.48;100.00;101962.88;6159077;22;20052;-79
2022/01/24 12:19:01;;;;;;;12.93;5.78;;;;;;;2.48;100.00;101987.53;6183271;23;20021;-80
2022/01/24 12:21:35;;;;;;;9.60;5.68;;;;;;;2.52;100.00;102010.00;6182709;23;20043;-80
2022/01/24 12:24:06;;;;;;;11.57;6.28;;;;;;;2.55;100.00;102004.25;6183241;23;20021;-80
2022/01/24 12:26:37;;;;;;;11.85;5.97;;;;;;;2.57;100.00;102010.38;6182951;23;20047;-80
2022/01/24 12:29:10;;;;;;;10.25;5.70;;;;;;;2.59;100.00;101996.97;6182513;23;20025;-80
2022/01/24 12:31:42;;;;;;;13.90;5.88;;;;;;;2.59;100.00;101981.63;6183057;23;20091;-79
2022/01/24 12:34:32;;;;;;;10.32;6.15;;;;;;;2.61;100.00;101958.72;6182015;23;20021;-80
2022/01/24 12:37:10;;;;;;;11.90;5.90;;;;;;;2.53;100.00;101930.03;6183795;23;20025;-80
2022/01/24 12:40:08;;;;;;;9.52;5.63;;;;;;;2.56;100.00;101939.59;6183872;23;20533;-79
2022/01/24 12:48:14;;;;;;;9.35;5.22;;;;;;;2.56;100.00;101930.25;6183493;23;20032;-79
2022/01/24 12:50:47;;;;;;;12.07;6.00;;;;;;;2.57;100.00;101932.06;6183812;23;20025;-79
2022/01/24 12:53:17;;;;;;;13.82;6.40;;;;;;;2.61;100.00;101938.28;6182830;23;20052;-80
2022/01/24 12:55:46;;;;;;;11.10;5.38;;;;;;;2.64;100.00;101925.78;6183548;23;20025;-80
2022/01/24 12:58:15;;;;;;;12.15;6.00;;;;;;;2.60;100.00;101934.84;6183277;23;20036;-80
2022/01/24 13:00:47;;;;;;;8.23;5.40;;;;;;;2.60;100.00;101942.53;6183666;23;20068;-79
2022/01/24 13:03:16;;;;;;;16.27;6.57;;;;;;;2.59;100.00;101956.06;6182640;23;20059;-79
2022/01/24 13:05:45;;;;;;;12.77;5.88;;;;;;;2.61;100.00;101957.09;6183106;23;20029;-79
2022/01/24 13:08:17;;;;;;;18.73;7.60;;;;;;;2.47;100.00;101937.19;6182775;23;20025;-80
2022/01/24 13:10:48;;;;;;;14.18;6.70;;;;;;;2.50;100.00;101956.22;6184060;23;20025;-80
2022/01/24 13:13:16;;;;;;;13.88;7.28;;;;;;;2.50;100.00;101957.88;6186350;23;20021;-79
2022/01/24 13:21:22;;;;;;;10.20;5.45;;;;;;;2.57;100.00;101956.72;6183090;23;20032;-81
2022/01/24 13:23:55;;;;;;;10.45;5.57;;;;;;;2.45;100.00;101946.38;6183305;23;20025;-81
2022/01/24 13:26:24;;;;;;;12.68;6.07;;;;;;;2.37;100.00;101932.13;6183118;23;20028;-81
2022/01/24 13:28:53;;;;;;;14.90;6.35;;;;;;;2.28;100.00;101929.69;6183044;23;20021;-80
2022/01/24 13:31:23;;;;;;;13.52;6.43;;;;;;;2.18;100.00;101922.94;6182904;23;20020;-80
2022/01/24 13:33:51;;;;;;;12.48;5.85;;;;;;;2.14;100.00;101918.34;6183061;23;20021;-80
2022/01/24 13:36:21;;;;;;;9.85;5.78;;;;;;;2.14;100.00;101914.91;6182908;23;20363;-81
2022/01/24 13:38:51;;;;;;;10.18;5.57;;;;;;;2.15;100.00;101925.22;6183605;23;20079;-81
2022/01/24 13:41:23;;;;;;;9.90;6.57;;;;;;;2.19;100.00;101944.25;6183228;23;20024;-80
2022/01/24 13:43:54;;;;;;;10.82;6.05;;;;;;;2.23;100.00;101954.84;6183239;23;20025;-81
2022/01/24 13:46:26;;;;;;;14.02;5.78;;;;;;;2.28;100.00;101938.25;6183094;23;20017;-80
2022/01/24 13:49:02;;;;;;;21.80;6.18;;;;;;;2.19;100.00;101921.28;6184557;23;20021;-80
2022/01/24 13:51:35;;;;;;;21.02;6.88;;;;;;;2.30;100.00;101935.81;6182736;23;20025;-81
2022/01/24 13:54:06;;;;;;;12.85;6.60;;;;;;;2.32;100.00;101953.84;6183888;23;20088;-81
2022/01/24 13:56:50;;;;;;;10.98;5.85;;;;;;;2.36;100.00;101960.97;6183871;23;20043;-81
2022/01/24 13:59:20;;;;;;;15.13;6.05;;;;;;;2.33;100.00;101951.38;6185065;23;20021;-81
2022/01/24 14:01:59;;;;;;;14.55;5.53;;;;;;;2.28;100.00;101952.69;6184211;23;20065;-81
2022/01/24 14:04:39;;;;;;;18.27;6.97;;;;;;;2.23;100.00;101954.84;6183892;23;20021;-81
2022/01/24 14:07:09;;;;;;;13.40;6.35;;;;;;;2.24;100.00;101945.53;6184175;23;20021;-82